Time;durP1;ratioP1;P1;durP2;ratioP2;P2;SDS_P1;SDS_P2;PMS_P1;PMS_P2;Temp;Humidity;BMP_temperature;BMP_pressure;BME280_temperature;BME280_humidity;BME280_pressure;Samples;Min_cycle;Max_cycle;Signal;HPM_P1;HPM_P2
2021/05/14 00:01:05;;;;;;;1.30;0.90;;;11.10;65.70;;;11.19;55.48;96813.03;5026954;28;20247;-63
2021/05/14 00:03:33;;;;;;;1.53;0.90;;;11.00;65.60;;;11.16;55.58;96813.38;5029928;28;20446;-63
2021/05/14 00:06:01;;;;;;;0.70;0.70;;;11.00;65.80;;;11.12;55.67;96811.28;5028429;28;20052;-63
2021/05/14 00:08:29;;;;;;;0.77;0.75;;;11.00;65.70;;;11.13;56.20;96810.31;5027762;28;20057;-63
2021/05/14 00:10:58;;;;;;;1.30;0.97;;;11.00;65.80;;;11.12;55.76;96806.78;5027604;28;20064;-64
2021/05/14 00:13:26;;;;;;;0.87;0.83;;;11.10;65.80;;;11.14;56.13;96807.44;5026251;28;20060;-64
2021/05/14 00:15:54;;;;;;;2.77;1.00;;;11.00;65.70;;;11.15;55.83;96813.59;5024856;28;20542;-63
2021/05/14 00:18:24;;;;;;;0.50;0.50;;;11.00;65.70;;;11.18;55.89;96810.56;5027490;28;20041;-63
2021/05/14 00:20:52;;;;;;;0.80;0.80;;;11.00;65.80;;;11.17;56.08;96809.72;5010454;28;20049;-63
2021/05/14 00:23:20;;;;;;;0.97;0.73;;;11.00;65.90;;;11.19;55.95;96812.22;5028860;28;20057;-62
2021/05/14 00:25:48;;;;;;;1.07;0.73;;;11.00;65.80;;;11.22;55.51;96818.00;5025500;28;20049;-62
2021/05/14 00:28:17;;;;;;;1.00;0.83;;;11.00;65.80;;;11.20;55.80;96820.00;5027671;28;20055;-61
2021/05/14 00:30:46;;;;;;;1.00;0.80;;;11.00;66.20;;;11.19;55.94;96813.03;5026617;28;20067;-62
2021/05/14 00:33:15;;;;;;;1.60;1.50;;;10.90;66.30;;;11.17;55.76;96807.06;5029450;28;20061;-63
2021/05/14 00:35:43;;;;;;;0.60;0.60;;;10.90;66.10;;;11.12;55.86;96806.78;5027546;28;20061;-63
2021/05/14 00:38:11;;;;;;;1.27;0.90;;;10.80;66.30;;;11.16;55.74;96807.25;5025109;28;20049;-63
2021/05/14 00:40:39;;;;;;;1.37;0.80;;;10.80;66.50;;;11.17;55.72;96809.72;5027606;28;20487;-64
2021/05/14 00:43:07;;;;;;;1.40;0.80;;;10.80;66.60;;;11.15;55.60;96811.75;5026487;28;20053;-63
2021/05/14 00:45:36;;;;;;;2.37;0.97;;;10.80;66.40;;;11.14;55.88;96815.41;5026637;28;20053;-64
2021/05/14 00:48:04;;;;;;;0.75;0.65;;;10.90;66.40;;;11.10;56.32;96813.31;5026742;28;20063;-63
2021/05/14 00:50:32;;;;;;;2.75;0.90;;;10.90;66.20;;;11.07;56.23;96817.19;5026959;28;20343;-63
2021/05/14 00:53:01;;;;;;;1.20;0.90;;;11.00;66.10;;;11.12;56.43;96813.97;5010405;28;20057;-62
2021/05/14 00:55:29;;;;;;;1.30;1.00;;;11.00;66.10;;;11.12;56.26;96813.97;5025913;28;20377;-63
2021/05/14 00:57:57;;;;;;;1.43;0.90;;;11.00;66.20;;;11.11;56.33;96813.13;5026366;28;20064;-62
2021/05/14 01:00:25;;;;;;;0.77;0.70;;;11.00;66.30;;;11.12;56.45;96811.28;5027596;28;20051;-63
2021/05/14 01:02:54;;;;;;;0.60;0.60;;;10.90;66.50;;;11.12;56.13;96813.97;5025651;28;20060;-63
2021/05/14 01:05:24;;;;;;;1.15;0.90;;;10.90;66.40;;;11.13;56.33;96811.13;5025671;28;20045;-63
2021/05/14 01:07:55;;;;;;;1.43;1.13;;;11.00;66.60;;;11.15;56.07;96810.94;5027013;28;20059;-63
2021/05/14 01:10:23;;;;;;;1.23;0.80;;;11.00;66.40;;;11.16;56.57;96809.91;5025987;28;20049;-62
2021/05/14 01:12:51;;;;;;;1.30;0.90;;;11.00;67.20;;;11.15;56.41;96811.75;5027859;28;20057;-63
2021/05/14 01:15:19;;;;;;;0.80;0.70;;;11.00;66.40;;;11.13;56.69;96808.44;5026877;28;20354;-64
2021/05/14 01:17:47;;;;;;;1.63;0.93;;;11.00;66.50;;;11.11;56.61;96810.47;5026169;28;20053;-63
2021/05/14 01:20:15;;;;;;;1.00;0.70;;;11.00;66.40;;;11.11;56.31;96806.97;5026558;28;20057;-63
2021/05/14 01:22:44;;;;;;;1.13;0.80;;;11.00;66.40;;;11.10;56.53;96803.47;5026817;28;20057;-63
2021/05/14 01:25:13;;;;;;;1.70;0.90;;;11.00;66.40;;;11.14;56.83;96799.44;5008446;28;20326;-62
2021/05/14 01:28:08;;;;;;;1.23;0.80;;;11.00;66.60;;;11.15;56.55;96798.44;5040627;28;20065;-62
2021/05/14 01:30:36;;;;;;;1.00;0.87;;;11.10;66.60;;;11.16;56.67;96800.06;5025110;28;20061;-63
2021/05/14 01:33:05;;;;;;;1.43;0.90;;;11.00;66.40;;;11.15;56.49;96806.44;5027514;28;20064;-63
2021/05/14 01:35:33;;;;;;;1.00;0.80;;;11.00;66.30;;;11.13;56.35;96799.66;5026776;28;20576;-64
2021/05/14 01:38:03;;;;;;;2.00;0.80;;;11.00;66.50;;;11.13;56.57;96797.78;5025668;28;20061;-63
2021/05/14 01:40:35;;;;;;;2.23;1.00;;;11.00;66.60;;;11.13;56.12;96795.13;5026220;28;20698;-62
2021/05/14 01:43:04;;;;;;;1.00;0.70;;;10.90;66.80;;;11.14;56.33;96795.94;5025806;28;20046;-62
2021/05/14 01:45:32;;;;;;;1.13;1.03;;;10.80;66.80;;;11.11;56.04;96791.84;5025562;28;20058;-63
2021/05/14 01:48:00;;;;;;;1.30;0.90;;;10.80;67.10;;;11.09;56.42;96787.69;5024790;28;20243;-64
2021/05/14 01:50:28;;;;;;;0.60;0.60;;;10.80;67.00;;;11.07;56.50;96795.03;5025953;28;20065;-63
2021/05/14 01:52:57;;;;;;;1.33;0.80;;;10.80;67.20;;;11.09;56.43;96793.00;5025014;28;20355;-63
2021/05/14 01:55:25;;;;;;;1.30;1.20;;;10.80;67.20;;;11.10;56.33;96789.34;5022586;28;20060;-62
2021/05/14 01:57:53;;;;;;;1.43;1.00;;;10.80;67.30;;;11.10;56.53;96784.84;5005424;28;20340;-62
2021/05/14 02:00:22;;;;;;;1.93;1.00;;;10.80;67.40;;;11.10;56.75;96784.84;5006267;28;20041;-62
2021/05/14 02:02:50;;;;;;;1.90;1.47;;;10.80;67.50;;;11.11;56.69;96788.31;5005902;28;20064;-63
2021/05/14 02:05:18;;;;;;;1.90;0.93;;;10.70;67.70;;;11.10;56.65;96786.69;5006009;28;20056;-64
2021/05/14 02:07:47;;;;;;;0.90;0.70;;;10.70;67.80;;;11.08;56.84;96791.38;5006392;28;20064;-62
2021/05/14 02:10:15;;;;;;;1.67;0.63;;;10.70;67.90;;;11.09;56.62;96795.66;5006046;28;20263;-62
2021/05/14 02:12:44;;;;;;;2.10;0.70;;;10.80;67.70;;;11.09;56.60;96793.00;5021641;28;20062;-63
2021/05/14 02:15:12;;;;;;;1.07;0.90;;;10.70;67.70;;;11.02;56.49;96785.75;5005701;28;20084;-62
2021/05/14 02:17:40;;;;;;;1.00;0.77;;;10.70;67.80;;;11.00;56.52;96781.63;5006240;28;20167;-64
2021/05/14 02:20:09;;;;;;;1.40;0.73;;;10.70;67.90;;;11.03;57.12;96786.56;5004619;28;20058;-62
2021/05/14 02:22:38;;;;;;;1.60;1.20;;;10.70;67.70;;;11.02;56.81;96788.41;5005431;28;20060;-63
2021/05/14 02:25:07;;;;;;;3.67;0.80;;;10.70;67.80;;;11.04;56.67;96788.25;5005402;28;20046;-62
2021/05/14 02:27:36;;;;;;;0.90;0.90;;;10.70;67.90;;;11.02;56.82;96793.75;5005332;28;20360;-63
2021/05/14 02:30:07;;;;;;;1.17;1.00;;;10.70;68.10;;;11.06;57.23;96788.06;5006551;28;20356;-61
2021/05/14 02:32:35;;;;;;;1.90;0.90;;;10.80;68.00;;;11.09;56.70;96787.69;5005272;28;20072;-42
2021/05/14 02:35:04;;;;;;;1.37;0.90;;;10.80;67.90;;;11.12;56.86;96788.13;5005430;28;20050;-43
2021/05/14 02:37:33;;;;;;;1.43;0.90;;;10.80;67.80;;;11.12;56.97;96787.31;5004357;28;20053;-43
2021/05/14 02:40:01;;;;;;;0.77;0.70;;;10.80;67.90;;;11.13;56.87;96794.31;5004861;28;20049;-43
2021/05/14 02:42:29;;;;;;;0.87;0.73;;;10.90;67.90;;;11.12;56.76;96792.66;5006384;28;20049;-44
2021/05/14 02:44:57;;;;;;;0.60;0.60;;;10.90;67.70;;;11.11;57.16;96789.16;5004399;28;20054;-43
2021/05/14 02:47:27;;;;;;;1.27;0.80;;;10.80;67.70;;;11.10;57.10;96794.66;5004127;28;20048;-44
2021/05/14 02:49:55;;;;;;;1.77;0.90;;;10.80;67.90;;;11.09;56.97;96790.34;5006250;28;20063;-43
2021/05/14 02:52:24;;;;;;;2.27;1.63;;;10.80;67.60;;;11.10;57.06;96786.69;5004682;28;20042;-44
2021/05/14 02:54:52;;;;;;;0.70;0.70;;;10.80;67.60;;;11.08;57.03;96783.38;5003730;28;20246;-43
2021/05/14 02:57:21;;;;;;;0.77;0.70;;;10.80;67.50;;;11.04;56.60;96786.41;5022865;28;20251;-44
2021/05/14 02:59:49;;;;;;;1.63;0.67;;;10.80;67.70;;;11.04;56.88;96786.41;5026115;28;20706;-43
2021/05/14 03:02:17;;;;;;;3.00;1.10;;;10.70;67.70;;;11.04;56.87;96780.25;5023061;28;20049;-44
2021/05/14 03:04:46;;;;;;;1.30;0.80;;;10.70;67.70;;;11.00;56.50;96781.63;5024935;28;20253;-44
2021/05/14 03:07:14;;;;;;;1.23;0.90;;;10.60;67.70;;;10.92;56.57;96777.22;5024226;28;20067;-43
2021/05/14 03:09:42;;;;;;;1.77;1.20;;;10.50;68.10;;;10.87;56.70;96782.28;5025289;28;20061;-44
2021/05/14 03:12:10;;;;;;;1.50;1.40;;;10.40;68.20;;;10.81;56.61;96783.00;5024918;28;20622;-43
2021/05/14 03:14:38;;;;;;;1.43;0.97;;;10.40;68.20;;;10.79;57.00;96777.88;5025478;28;20064;-44
2021/05/14 03:17:06;;;;;;;0.80;0.80;;;10.40;68.50;;;10.77;57.17;96777.22;5024379;28;20050;-45
2021/05/14 03:19:35;;;;;;;1.03;0.93;;;10.40;68.50;;;10.73;57.47;96780.44;5023224;28;20049;-44
2021/05/14 03:22:03;;;;;;;2.50;1.60;;;10.40;68.50;;;10.73;57.16;96783.94;5025955;28;20063;-44
2021/05/14 03:24:33;;;;;;;4.85;3.28;;;10.30;68.50;;;10.72;57.39;96784.09;5027590;28;20355;-44
2021/05/14 03:27:01;;;;;;;4.90;2.70;;;10.40;68.70;;;10.71;57.29;96782.47;5028129;28;20049;-42
2021/05/14 03:29:29;;;;;;;3.47;2.43;;;10.40;68.70;;;10.71;57.17;96774.47;5028236;28;20053;-44
2021/05/14 03:31:57;;;;;;;1.20;1.10;;;10.40;68.70;;;10.71;57.10;96780.63;5027756;28;20053;-43
2021/05/14 03:34:27;;;;;;;1.47;1.00;;;10.40;68.40;;;10.69;57.34;96785.31;5027909;28;20049;-45
2021/05/14 03:36:55;;;;;;;1.87;0.80;;;10.50;68.30;;;10.70;57.62;96779.00;5028221;28;20250;-44
2021/05/14 03:39:25;;;;;;;1.17;0.83;;;10.50;68.10;;;10.70;57.53;96780.81;5026544;28;20060;-44
2021/05/14 03:42:13;;;;;;;1.60;1.03;;;10.40;68.10;;;10.70;57.52;96779.00;5027294;28;20057;-43
2021/05/14 03:44:42;;;;;;;1.83;1.03;;;10.50;68.10;;;10.66;57.37;96776.84;5042588;28;20045;-44
2021/05/14 03:47:11;;;;;;;1.92;1.52;;;10.50;68.10;;;10.68;57.18;96777.50;5028564;28;20056;-44
2021/05/14 03:49:40;;;;;;;2.20;1.90;;;10.40;68.20;;;10.68;57.21;96775.66;5027982;28;20067;-44
2021/05/14 03:52:11;;;;;;;1.27;1.17;;;10.40;68.60;;;10.67;57.06;96775.88;5027488;28;20053;-45
2021/05/14 03:54:41;;;;;;;3.07;1.90;;;10.30;68.60;;;10.63;57.29;96780.72;5028007;28;20057;-44
2021/05/14 03:57:10;;;;;;;0.80;0.70;;;10.20;68.80;;;10.60;57.63;96775.75;5027295;28;20049;-44
2021/05/14 03:59:38;;;;;;;1.17;0.90;;;10.20;68.90;;;10.54;57.77;96779.16;5027295;28;20061;-43
2021/05/14 04:02:08;;;;;;;1.10;0.90;;;10.20;69.00;;;10.49;57.66;96771.72;5028425;28;20049;-43
2021/05/14 04:04:37;;;;;;;1.30;1.00;;;10.20;69.00;;;10.43;57.77;96778.59;5027827;28;20053;-42
2021/05/14 04:07:05;;;;;;;1.83;1.00;;;10.20;68.80;;;10.40;57.71;96784.25;5028011;28;20056;-42
2021/05/14 04:09:37;;;;;;;0.87;0.80;;;10.20;69.10;;;10.38;57.96;96777.47;5027500;28;20058;-43
2021/05/14 04:14:43;;;;;;;1.70;1.00;;;10.20;69.00;;;10.32;58.01;96787.00;5028365;28;20055;-44
2021/05/14 04:17:24;;;;;;;1.67;1.50;;;10.10;69.10;;;10.33;57.82;96779.84;5027108;28;20053;-44
2021/05/14 04:19:53;;;;;;;1.67;0.97;;;10.00;69.30;;;10.33;57.82;96782.50;5026743;28;20058;-43
2021/05/14 04:22:21;;;;;;;2.57;1.30;;;10.00;69.50;;;10.29;57.99;96789.16;5025835;28;20053;-43
2021/05/14 04:24:49;;;;;;;1.07;0.93;;;10.00;69.60;;;10.29;58.05;96784.66;5027396;28;20698;-45
2021/05/14 04:27:17;;;;;;;2.13;1.20;;;10.00;69.60;;;10.25;57.94;96788.69;5025403;28;20045;-43
2021/05/14 04:29:50;;;;;;;0.80;0.80;;;9.90;69.70;;;10.23;58.84;96790.72;5026071;28;20061;-43
2021/05/14 04:32:18;;;;;;;2.47;1.03;;;10.00;69.60;;;10.23;58.19;96788.88;5053694;23;20055;-44
2021/05/14 04:34:47;;;;;;;2.93;1.17;;;9.90;69.50;;;10.22;58.23;96794.41;5041309;28;20053;-46
2021/05/14 04:37:15;;;;;;;2.30;1.30;;;10.00;69.50;;;10.19;58.60;96789.41;5025224;28;20046;-42
2021/05/14 04:39:44;;;;;;;2.30;0.90;;;9.90;69.70;;;10.21;58.41;96790.88;5026199;28;20057;-43
2021/05/14 04:42:12;;;;;;;1.13;1.00;;;9.90;69.80;;;10.24;58.19;96793.19;5028248;28;20242;-43
2021/05/14 04:44:40;;;;;;;1.30;1.00;;;9.90;70.10;;;10.28;58.23;96792.84;5026911;28;20045;-43
2021/05/14 04:47:08;;;;;;;0.97;0.87;;;10.00;70.00;;;10.29;58.34;96791.81;5026531;28;20335;-44
2021/05/14 04:49:36;;;;;;;1.63;1.00;;;10.00;69.90;;;10.33;58.34;96787.81;5027451;28;20059;-44
2021/05/14 04:52:21;;;;;;;3.00;1.20;;;10.00;69.80;;;10.36;58.50;96795.47;5027237;28;20053;-43
2021/05/14 04:54:49;;;;;;;2.00;1.10;;;10.00;70.10;;;10.34;58.43;96787.66;5025775;28;20282;-43
2021/05/14 04:57:17;;;;;;;1.90;1.43;;;10.10;70.10;;;10.36;58.38;96787.47;5043691;28;20061;-43
2021/05/14 04:59:46;;;;;;;2.43;1.43;;;10.10;69.80;;;10.35;58.55;96786.66;5048248;28;20051;-43
2021/05/14 05:02:14;;;;;;;2.30;1.43;;;10.10;70.10;;;10.37;58.91;96791.78;5047103;28;20040;-43
2021/05/14 05:04:43;;;;;;;1.80;1.47;;;10.10;70.00;;;10.35;58.66;96796.44;5047170;28;20056;-43
2021/05/14 05:07:11;;;;;;;2.87;1.60;;;10.20;70.00;;;10.36;58.88;96793.63;5028968;28;20063;-45
2021/05/14 05:09:39;;;;;;;2.27;1.10;;;10.20;70.00;;;10.37;58.72;96792.63;5046336;28;20057;-45
2021/05/14 05:12:08;;;;;;;1.40;1.00;;;10.20;70.20;;;10.40;58.89;96791.44;5048171;28;20056;-44
2021/05/14 05:14:38;;;;;;;2.73;1.00;;;10.20;70.10;;;10.40;58.79;96797.56;5045084;28;20053;-45
2021/05/14 05:17:07;;;;;;;2.90;1.20;;;10.20;70.20;;;10.47;58.56;96796.84;5046558;28;20056;-43
2021/05/14 05:19:35;;;;;;;3.23;1.60;;;10.20;70.10;;;10.52;58.76;96802.44;5045163;28;20056;-42
2021/05/14 05:22:03;;;;;;;1.90;1.20;;;10.30;70.10;;;10.57;58.76;96802.75;5047274;28;20044;-43
2021/05/14 05:24:31;;;;;;;2.00;1.20;;;10.30;70.10;;;10.58;58.80;96804.38;5046411;28;20057;-44
2021/05/14 05:27:00;;;;;;;2.13;1.10;;;10.40;70.10;;;10.59;58.77;96804.22;5044462;28;20049;-43
2021/05/14 05:29:28;;;;;;;0.97;0.90;;;10.40;70.10;;;10.63;58.75;96805.50;5046811;28;20356;-43
2021/05/14 05:31:56;;;;;;;1.10;0.80;;;10.50;69.90;;;10.70;59.05;96813.59;5047321;28;20264;-42
2021/05/14 05:34:25;;;;;;;0.97;0.87;;;10.50;69.80;;;10.74;58.84;96814.88;5047047;28;20059;-43
2021/05/14 05:36:55;;;;;;;0.97;0.70;;;10.60;69.60;;;10.78;58.79;96815.34;5044983;28;20056;-44
2021/05/14 05:39:23;;;;;;;0.73;0.57;;;10.60;69.40;;;10.82;58.96;96817.44;5045957;28;20051;-44
2021/05/14 05:41:51;;;;;;;0.70;0.70;;;10.70;69.50;;;10.88;58.97;96815.06;5047736;28;20359;-43
2021/05/14 05:44:20;;;;;;;1.70;0.93;;;10.80;69.30;;;10.90;58.48;96826.38;5046464;28;20041;-45
2021/05/14 05:46:50;;;;;;;1.63;0.90;;;10.80;69.60;;;10.94;58.75;96825.81;5045145;28;20059;-44
2021/05/14 05:49:18;;;;;;;2.67;1.03;;;10.80;69.60;;;10.94;59.42;96839.13;5045855;28;20329;-45
2021/05/14 05:51:48;;;;;;;0.87;0.87;;;10.90;70.10;;;10.90;59.30;96837.03;5045628;28;20052;-46
2021/05/14 05:54:16;;;;;;;0.97;0.87;;;10.80;70.10;;;10.97;58.88;96845.91;5045679;28;20061;-44
2021/05/14 05:56:45;;;;;;;1.27;0.90;;;10.80;70.00;;;11.00;58.91;96838.38;5028158;28;20263;-44
2021/05/14 05:59:16;;;;;;;3.33;1.10;;;10.90;69.80;;;11.04;59.11;96839.66;5026763;28;20053;-44
2021/05/14 06:01:44;;;;;;;1.10;0.73;;;11.00;70.40;;;11.08;58.93;96845.47;5045339;28;20056;-44
2021/05/14 06:04:16;;;;;;;2.30;0.80;;;11.00;69.40;;;11.13;59.21;96845.75;5045926;28;20230;-43
2021/05/14 06:06:44;;;;;;;1.20;0.93;;;11.10;69.50;;;11.17;59.21;96855.03;5046143;28;20065;-42
2021/05/14 06:09:12;;;;;;;0.87;0.60;;;11.10;69.50;;;11.19;58.88;96850.34;5046059;28;20059;-42
2021/05/14 06:11:40;;;;;;;0.80;0.70;;;11.20;69.20;;;11.23;58.90;96856.94;5043962;28;20365;-42
2021/05/14 06:14:08;;;;;;;1.07;0.60;;;11.20;68.80;;;11.26;58.86;96865.56;5045478;28;20048;-42
2021/05/14 06:16:37;;;;;;;0.60;0.60;;;11.30;68.70;;;11.28;58.34;96852.91;5044957;28;20356;-41
2021/05/14 06:19:18;;;;;;;0.50;0.50;;;11.30;68.80;;;11.18;59.39;96861.16;5045551;28;20545;-42
2021/05/14 06:21:48;;;;;;;1.13;0.93;;;11.20;69.00;;;11.16;59.42;96857.84;5045270;28;20362;-42
2021/05/14 06:24:17;;;;;;;1.70;1.37;;;11.20;69.20;;;11.29;59.43;96858.03;5043848;28;20238;-43
2021/05/14 06:26:47;;;;;;;1.48;1.00;;;11.30;69.30;;;11.22;59.30;96857.13;5044483;28;20048;-41
2021/05/14 06:29:15;;;;;;;0.70;0.70;;;11.30;69.20;;;11.31;59.12;96860.53;5027690;28;20205;-42
2021/05/14 06:31:43;;;;;;;1.23;0.90;;;11.40;69.00;;;11.41;59.14;96866.41;5043980;28;20048;-45
2021/05/14 06:34:13;;;;;;;2.60;1.00;;;11.50;68.90;;;11.49;59.24;96857.47;5044599;28;20250;-44
2021/05/14 06:36:42;;;;;;;1.95;0.80;;;11.60;68.80;;;11.43;59.11;96853.72;5044904;28;20067;-42
2021/05/14 06:39:10;;;;;;;5.05;1.38;;;11.60;68.90;;;11.42;59.38;96858.22;5027312;28;20270;-41
2021/05/14 06:41:38;;;;;;;1.02;0.73;;;11.50;68.90;;;11.53;59.02;96856.09;5042447;28;20063;-42
2021/05/14 06:44:07;;;;;;;0.93;0.60;;;11.60;69.10;;;11.53;59.39;96856.91;5046048;28;20056;-41
2021/05/14 06:46:35;;;;;;;0.77;0.60;;;11.70;69.10;;;11.45;59.52;96851.69;5042832;28;20059;-42
2021/05/14 06:49:06;;;;;;;2.63;0.57;;;11.60;68.50;;;11.46;59.20;96860.50;5043685;28;20064;-42
2021/05/14 06:51:35;;;;;;;1.20;0.93;;;11.60;68.60;;;11.53;58.67;96872.06;5043417;28;20049;-43
2021/05/14 06:54:04;;;;;;;1.40;1.20;;;11.70;68.70;;;11.62;59.05;96860.31;5028028;28;20059;-44
2021/05/14 06:56:33;;;;;;;0.68;0.50;;;11.70;68.70;;;11.67;59.31;96854.41;5042182;28;20049;-42
2021/05/14 06:59:02;;;;;;;0.77;0.68;;;11.80;68.90;;;11.79;58.93;96860.91;5045240;28;20083;-42
2021/05/14 07:01:30;;;;;;;0.68;0.60;;;11.90;68.80;;;11.81;58.94;96858.88;5043532;28;20044;-43
2021/05/14 07:03:59;;;;;;;0.68;0.60;;;12.00;68.20;;;11.81;58.46;96864.22;5045343;28;20223;-43
2021/05/14 07:06:29;;;;;;;0.47;0.47;;;12.00;67.70;;;11.81;57.63;96866.88;5043686;28;20525;-46
2021/05/14 07:08:57;;;;;;;2.47;0.68;;;12.00;66.00;;;11.87;58.44;96863.47;5044692;28;20432;-47
2021/05/14 07:11:25;;;;;;;0.63;0.60;;;12.00;67.60;;;11.77;58.28;96861.09;5043961;28;20370;-47
2021/05/14 07:13:53;;;;;;;0.50;0.50;;;12.00;67.60;;;11.83;58.45;96863.00;5046660;28;20587;-46
2021/05/14 07:16:21;;;;;;;0.77;0.60;;;12.00;67.20;;;11.89;58.31;96868.63;5044002;28;20064;-45
2021/05/14 07:18:50;;;;;;;0.82;0.50;;;12.10;67.20;;;11.98;57.82;96871.00;5044042;28;20219;-44
2021/05/14 07:21:18;;;;;;;1.33;0.57;;;12.20;67.10;;;11.96;57.95;96864.19;5044102;28;20043;-46
2021/05/14 07:23:55;;;;;;;0.80;0.50;;;12.30;66.30;;;12.00;57.72;96868.97;5045301;28;20053;-47
2021/05/14 07:26:26;;;;;;;0.82;0.60;;;12.30;65.80;;;12.09;57.35;96875.00;5045063;28;20485;-45
2021/05/14 07:28:58;;;;;;;0.60;0.52;;;12.30;66.20;;;12.10;57.01;96863.31;5042581;28;20372;-44
2021/05/14 07:31:26;;;;;;;0.82;0.50;;;12.40;65.60;;;12.23;57.22;96867.94;5043166;28;20067;-45
2021/05/14 07:33:54;;;;;;;0.55;0.40;;;12.50;65.90;;;12.23;55.94;96865.28;5043736;28;20055;-45
2021/05/14 07:36:24;;;;;;;0.45;0.40;;;12.60;63.30;;;12.12;55.40;96876.50;5044009;28;20055;-44
2021/05/14 07:38:54;;;;;;;1.35;0.63;;;12.50;63.00;;;12.30;55.73;96860.03;5025991;28;20059;-44
2021/05/14 07:41:23;;;;;;;1.40;0.80;;;12.60;63.80;;;12.30;55.58;96862.69;5042597;28;20049;-45
2021/05/14 07:43:53;;;;;;;0.68;0.60;;;12.60;63.50;;;12.42;55.88;96869.16;5043015;28;20044;-45
2021/05/14 07:46:21;;;;;;;1.70;1.55;;;12.70;63.70;;;12.54;55.54;96859.63;5044143;28;20044;-44
2021/05/14 07:48:54;;;;;;;0.52;0.43;;;12.80;62.90;;;12.51;54.03;96864.53;5042974;28;20372;-44
2021/05/14 07:51:23;;;;;;;0.75;0.60;;;12.80;61.10;;;12.50;53.44;96862.88;5040967;28;20053;-43
2021/05/14 07:53:51;;;;;;;0.77;0.50;;;12.80;60.50;;;12.39;54.25;96864.22;5045976;28;20769;-44
2021/05/14 07:56:20;;;;;;;2.72;0.90;;;12.70;61.80;;;12.51;54.89;96864.53;5043271;28;20057;-42
2021/05/14 07:58:48;;;;;;;0.85;0.60;;;12.70;62.70;;;12.54;55.06;96864.97;5043970;28;20048;-45
2021/05/14 08:01:16;;;;;;;0.40;0.40;;;12.80;63.40;;;12.70;54.53;96865.72;5040789;28;20040;-44
2021/05/14 08:03:44;;;;;;;0.73;0.57;;;12.90;62.70;;;12.71;54.15;96860.16;5042037;28;20037;-44
2021/05/14 08:06:13;;;;;;;0.43;0.43;;;13.00;61.80;;;12.78;54.38;96876.25;5041711;28;20060;-45
2021/05/14 08:08:42;;;;;;;0.88;0.40;;;13.10;61.90;;;12.80;54.01;96864.34;5043976;28;20047;-44
2021/05/14 08:11:10;;;;;;;0.82;0.47;;;13.10;61.40;;;12.90;53.06;96865.84;5045256;28;20671;-43
2021/05/14 08:13:38;;;;;;;0.75;0.65;;;13.20;59.50;;;12.96;51.92;96865.06;5046850;28;20047;-44
2021/05/14 08:16:07;;;;;;;0.95;0.77;;;13.20;58.90;;;13.06;52.70;96862.88;5046436;28;20049;-43
2021/05/14 08:18:35;;;;;;;2.95;0.55;;;13.30;60.40;;;13.10;52.45;96858.78;5045135;28;20434;-44
2021/05/14 08:21:04;;;;;;;1.55;0.60;;;13.40;59.30;;;13.00;51.99;96866.31;5046516;28;20048;-43
2021/05/14 08:23:32;;;;;;;0.43;0.40;;;13.40;58.70;;;12.97;51.43;96864.88;5046719;28;20372;-45
2021/05/14 08:26:00;;;;;;;0.47;0.47;;;13.40;58.20;;;13.05;51.48;96865.75;5046750;28;20061;-44
2021/05/14 08:28:29;;;;;;;0.43;0.43;;;13.40;57.90;;;12.96;50.86;96871.22;5029064;28;20049;-43
2021/05/14 08:30:57;;;;;;;0.88;0.60;;;13.30;57.50;;;13.12;51.85;96863.94;5047159;28;20053;-43
2021/05/14 08:33:26;;;;;;;0.70;0.60;;;13.40;59.50;;;12.92;51.20;96869.16;5046944;28;20059;-44
2021/05/14 08:35:55;;;;;;;0.60;0.40;;;13.20;58.20;;;13.02;52.24;96871.47;5047428;28;20067;-43
2021/05/14 08:38:25;;;;;;;0.75;0.45;;;13.10;60.20;;;13.05;51.87;96866.56;5047845;28;20056;-43
2021/05/14 08:40:54;;;;;;;0.95;0.70;;;13.20;59.30;;;13.14;52.78;96861.88;5046735;28;20204;-43
2021/05/14 08:43:22;;;;;;;0.47;0.40;;;13.40;60.90;;;13.28;52.58;96866.31;5046625;28;20246;-44
2021/05/14 08:45:51;;;;;;;0.80;0.68;;;13.40;59.70;;;13.33;52.25;96857.72;5045521;28;20048;-44
2021/05/14 08:48:19;;;;;;;1.13;0.77;;;13.50;59.70;;;13.43;52.09;96865.38;5047629;28;20051;-44
2021/05/14 08:50:47;;;;;;;0.73;0.60;;;13.70;59.70;;;13.41;51.51;96859.41;5029066;28;20061;-44
2021/05/14 08:53:37;;;;;;;0.60;0.57;;;13.70;58.80;;;13.57;51.52;96867.91;5045852;28;20350;-46
2021/05/14 08:56:05;;;;;;;1.45;0.60;;;13.90;58.40;;;13.64;50.57;96869.78;5046159;28;20053;-44
2021/05/14 08:58:36;;;;;;;0.50;0.50;;;14.00;57.90;;;13.54;49.66;96865.63;5047682;28;20261;-44
2021/05/14 09:01:05;;;;;;;0.68;0.68;;;13.90;56.20;;;13.61;50.28;96872.84;5029017;28;20064;-44
2021/05/14 09:04:07;;;;;;;1.23;0.82;;;13.90;57.10;;;13.53;50.35;96866.66;5046927;28;20346;-45
2021/05/14 09:06:43;;;;;;;0.90;0.50;;;13.80;57.80;;;13.55;49.94;96869.97;5044680;28;20474;-46
2021/05/14 09:09:14;;;;;;;0.90;0.50;;;13.90;57.00;;;13.51;50.30;96865.19;5046999;28;20351;-44
2021/05/14 09:11:49;;;;;;;1.25;0.30;;;13.70;58.20;;;13.64;50.82;96867.13;5046804;28;20052;-45
2021/05/14 09:14:47;;;;;;;1.27;0.55;;;13.90;58.70;;;13.73;51.12;96863.25;5045181;28;20219;-44
2021/05/14 09:17:18;;;;;;;0.60;0.40;;;14.00;58.30;;;13.83;50.24;96865.56;5029968;28;20855;-43
2021/05/14 09:19:48;;;;;;;0.57;0.43;;;14.20;56.90;;;13.93;50.76;96868.66;5045702;28;20051;-45
2021/05/14 09:22:22;;;;;;;0.55;0.40;;;14.20;58.10;;;13.88;50.36;96865.75;5047900;28;20055;-43
2021/05/14 09:25:02;;;;;;;0.75;0.75;;;14.20;57.10;;;13.89;49.92;96870.91;5045366;28;20049;-44
2021/05/14 09:27:33;;;;;;;0.68;0.40;;;14.20;56.60;;;13.98;50.20;96860.88;5046610;28;20075;-44
2021/05/14 09:30:08;;;;;;;0.60;0.60;;;14.30;57.30;;;14.02;49.80;96861.28;5027672;28;20052;-44
2021/05/14 09:32:38;;;;;;;1.00;0.50;;;14.40;56.50;;;14.02;48.60;96859.44;5046309;28;20255;-45
2021/05/14 09:35:08;;;;;;;0.40;0.40;;;14.50;55.00;;;14.21;48.88;96859.66;5045530;28;20048;-44
2021/05/14 09:37:47;;;;;;;3.13;1.63;;;14.70;55.70;;;14.38;47.77;96855.56;5027979;28;20053;-44
2021/05/14 09:40:22;;;;;;;0.52;0.52;;;14.90;54.40;;;14.25;44.22;96866.25;5043921;28;20061;-46
2021/05/14 09:43:00;;;;;;;0.60;0.50;;;14.80;50.60;;;14.25;44.36;96851.03;5044029;28;20067;-44
2021/05/14 09:45:29;;;;;;;1.80;0.70;;;14.70;49.10;;;14.36;46.23;96855.78;5045237;28;20063;-44
2021/05/14 09:47:58;;;;;;;1.08;0.70;;;14.70;53.00;;;14.33;46.46;96841.97;5044611;28;20057;-44
2021/05/14 09:50:37;;;;;;;0.75;0.30;;;14.70;53.30;;;14.28;45.24;96853.28;5045386;28;20049;-43
2021/05/14 09:53:14;;;;;;;0.52;0.50;;;14.70;51.60;;;14.43;46.17;96842.41;5045694;28;20071;-43
2021/05/14 09:55:56;;;;;;;0.50;0.50;;;14.80;53.20;;;14.35;46.35;96850.63;5026051;28;20055;-46
2021/05/14 09:58:26;;;;;;;0.43;0.43;;;14.80;53.00;;;14.44;46.52;96846.72;5046236;28;20062;-43
2021/05/14 10:00:57;;;;;;;0.40;0.40;;;14.90;52.90;;;14.54;45.71;96849.00;5045634;28;20067;-42
2021/05/14 10:03:29;;;;;;;0.63;0.60;;;15.00;51.90;;;14.64;45.93;96845.94;5044505;28;20055;-43
2021/05/14 10:06:01;;;;;;;0.93;0.70;;;15.10;52.60;;;14.71;45.51;96844.06;5045554;28;20049;-46
2021/05/14 10:08:33;;;;;;;1.80;0.75;;;15.30;52.10;;;14.82;46.72;96842.63;5044143;28;20083;-46
2021/05/14 10:11:05;;;;;;;0.50;0.50;;;15.30;53.70;;;14.79;44.65;96843.84;5046066;28;20087;-45
2021/05/14 10:13:33;;;;;;;1.67;0.60;;;15.20;50.10;;;14.70;44.84;96845.94;5026848;28;20045;-48
2021/05/14 10:16:06;;;;;;;0.40;0.38;;;15.00;50.70;;;14.62;46.13;96850.66;5011738;28;20063;-45
2021/05/14 10:18:46;;;;;;;0.52;0.32;;;14.80;52.60;;;14.50;45.49;96845.06;5044878;28;20361;-44
2021/05/14 10:21:15;;;;;;;3.10;0.60;;;14.70;52.00;;;14.53;45.98;96840.13;5042874;28;20357;-45
2021/05/14 10:23:59;;;;;;;0.35;0.35;;;14.70;53.20;;;14.60;45.88;96845.53;5046871;28;20056;-47
2021/05/14 10:26:37;;;;;;;0.93;0.60;;;14.80;52.20;;;14.63;44.87;96841.59;5060358;28;20229;-46
2021/05/14 10:29:13;;;;;;;1.00;0.63;;;14.90;50.90;;;14.71;44.92;96844.91;5046005;28;20087;-46
2021/05/14 10:31:46;;;;;;;1.52;0.52;;;15.00;50.90;;;14.87;45.55;96837.44;5043527;28;20082;-46
2021/05/14 10:34:16;;;;;;;0.82;0.73;;;15.30;51.20;;;14.99;44.43;96841.16;5044379;28;20052;-45